Time;durP1;ratioP1;P1;durP2;ratioP2;P2;SDS_P1;SDS_P2;PMS_P1;PMS_P2;Temp;Humidity;BMP_temperature;BMP_pressure;BME280_temperature;BME280_humidity;BME280_pressure;Samples;Min_cycle;Max_cycle;Signal;HPM_P1;HPM_P2
2021/01/23 00:01:29;;;;;;;26.57;24.30;;;1.50;99.90;;;;;;5098589;28;20458;-76
2021/01/23 00:03:56;;;;;;;25.97;23.87;;;1.50;99.90;;;;;;5098565;28;20476;-77
2021/01/23 00:06:24;;;;;;;25.63;23.00;;;1.60;99.90;;;;;;5096545;28;21038;-76
2021/01/23 00:08:50;;;;;;;26.40;23.60;;;1.60;99.90;;;;;;5098178;28;20485;-76
2021/01/23 00:11:16;;;;;;;25.80;23.43;;;1.70;99.90;;;;;;5100043;28;20689;-76
2021/01/23 00:13:42;;;;;;;25.07;23.00;;;1.70;99.90;;;;;;5097887;28;20456;-76
2021/01/23 00:16:09;;;;;;;24.80;22.70;;;1.80;99.90;;;;;;5102176;28;21066;-76
2021/01/23 00:18:36;;;;;;;25.70;23.50;;;1.80;99.90;;;;;;5101867;28;20465;-76
2021/01/23 00:21:02;;;;;;;26.90;24.27;;;1.90;99.90;;;;;;5097140;28;20463;-75
2021/01/23 00:23:30;;;;;;;24.83;22.50;;;1.90;99.90;;;;;;5093925;28;20953;-75
2021/01/23 00:25:57;;;;;;;25.47;22.97;;;1.90;99.90;;;;;;5102153;28;20864;-76
2021/01/23 00:28:24;;;;;;;30.07;23.23;;;1.90;99.90;;;;;;5097630;28;20488;-75
2021/01/23 00:30:51;;;;;;;25.50;23.30;;;1.90;99.90;;;;;;5107069;28;20491;-76
2021/01/23 00:33:17;;;;;;;23.67;21.67;;;1.90;99.90;;;;;;5096374;28;20464;-75
2021/01/23 00:35:43;;;;;;;27.93;24.93;;;1.90;99.90;;;;;;5097165;28;20480;-77
2021/01/23 00:38:10;;;;;;;23.90;21.60;;;1.90;99.90;;;;;;5093605;28;20460;-76
2021/01/23 00:40:37;;;;;;;29.57;25.77;;;1.90;99.90;;;;;;5103093;28;20508;-76
2021/01/23 00:43:03;;;;;;;25.17;22.90;;;1.80;99.90;;;;;;5103275;28;20460;-75
2021/01/23 00:45:29;;;;;;;25.33;23.03;;;1.90;99.90;;;;;;5099294;28;20456;-77
2021/01/23 00:47:55;;;;;;;23.73;21.83;;;1.80;99.90;;;;;;5101089;28;20500;-76
2021/01/23 00:50:22;;;;;;;24.77;22.37;;;1.90;99.90;;;;;;5102786;27;20485;-75
2021/01/23 00:52:49;;;;;;;24.07;21.80;;;1.80;99.90;;;;;;5099163;28;20523;-76
2021/01/23 00:55:16;;;;;;;23.63;21.63;;;1.70;99.90;;;;;;5107357;28;20471;-75
2021/01/23 00:57:44;;;;;;;25.37;22.97;;;1.70;99.90;;;;;;5098726;28;20793;-75
2021/01/23 01:00:11;;;;;;;24.47;22.47;;;1.60;99.90;;;;;;5102609;28;20472;-76
2021/01/23 01:02:37;;;;;;;24.00;22.07;;;1.60;99.90;;;;;;5100519;28;20461;-75
2021/01/23 01:05:05;;;;;;;24.63;22.17;;;1.50;99.90;;;;;;5091470;28;20461;-76
2021/01/23 01:07:31;;;;;;;26.07;23.57;;;1.50;99.90;;;;;;5099202;28;20461;-75
2021/01/23 01:09:57;;;;;;;25.40;23.13;;;1.40;99.90;;;;;;5108368;28;20461;-76
2021/01/23 01:12:24;;;;;;;24.27;22.07;;;1.40;99.90;;;;;;5099321;28;20459;-76
2021/01/23 01:14:52;;;;;;;24.13;21.80;;;1.50;99.90;;;;;;5104245;28;20510;-75
2021/01/23 01:17:18;;;;;;;24.70;22.20;;;1.40;99.90;;;;;;5094903;28;20922;-76
2021/01/23 01:19:44;;;;;;;25.00;22.60;;;1.40;99.90;;;;;;5097691;28;20465;-76
2021/01/23 01:22:11;;;;;;;23.13;21.27;;;1.40;99.90;;;;;;5106078;28;20835;-76
2021/01/23 01:24:37;;;;;;;23.30;21.30;;;1.40;99.90;;;;;;5099919;28;20870;-77
2021/01/23 01:27:04;;;;;;;24.37;22.27;;;1.40;99.90;;;;;;5098584;28;20471;-76
2021/01/23 01:29:30;;;;;;;22.70;20.57;;;1.50;99.90;;;;;;5098806;28;20492;-77
2021/01/23 01:31:57;;;;;;;24.43;22.03;;;1.50;99.90;;;;;;5101743;28;20467;-76
2021/01/23 01:34:24;;;;;;;22.83;20.43;;;1.60;99.90;;;;;;5102961;28;20449;-75
2021/01/23 01:36:50;;;;;;;22.90;20.60;;;1.60;99.90;;;;;;5100779;28;20468;-76
2021/01/23 01:39:16;;;;;;;22.47;20.33;;;1.70;99.90;;;;;;5101667;28;20798;-76
2021/01/23 01:41:43;;;;;;;21.90;19.07;;;1.90;99.90;;;;;;5102076;28;20458;-75
2021/01/23 01:44:10;;;;;;;23.30;20.60;;;2.00;99.90;;;;;;5100504;28;20953;-76
2021/01/23 01:46:37;;;;;;;21.90;20.17;;;2.10;99.90;;;;;;5098995;28;20468;-76
2021/01/23 01:49:06;;;;;;;21.93;19.60;;;2.20;99.90;;;;;;5099541;28;20496;-76
2021/01/23 01:51:32;;;;;;;21.63;19.77;;;2.20;99.90;;;;;;5103846;28;20492;-75
2021/01/23 01:53:59;;;;;;;19.93;18.33;;;2.10;99.90;;;;;;5102856;28;20457;-77
2021/01/23 01:56:27;;;;;;;21.70;20.07;;;2.10;99.90;;;;;;5095431;28;20500;-75
2021/01/23 01:58:53;;;;;;;22.33;20.33;;;2.10;99.90;;;;;;5103825;28;20891;-75
2021/01/23 02:01:19;;;;;;;21.67;19.87;;;2.00;99.90;;;;;;5101952;27;20867;-76
2021/01/23 02:03:59;;;;;;;22.33;20.17;;;2.00;99.90;;;;;;5098580;28;20667;-77
2021/01/23 02:06:40;;;;;;;22.00;20.23;;;1.90;99.90;;;;;;5098870;28;20563;-75
2021/01/23 02:09:15;;;;;;;21.07;19.47;;;1.90;99.90;;;;;;5091953;28;20520;-77
2021/01/23 02:11:52;;;;;;;20.50;18.87;;;1.90;99.90;;;;;;5105479;27;20509;-76
2021/01/23 02:14:27;;;;;;;20.77;19.07;;;1.90;99.90;;;;;;5099269;27;21348;-76
2021/01/23 02:16:56;;;;;;;21.73;19.70;;;1.80;99.90;;;;;;5101956;27;20464;-77
2021/01/23 02:19:38;;;;;;;20.87;19.07;;;1.80;99.90;;;;;;5107047;27;20457;-75
2021/01/23 02:22:37;;;;;;;21.77;19.77;;;1.80;99.90;;;;;;5104586;27;20460;-76
2021/01/23 02:25:05;;;;;;;23.40;20.37;;;1.80;99.90;;;;;;5107651;27;20509;-76
2021/01/23 02:27:48;;;;;;;21.00;18.93;;;1.80;99.90;;;;;;5101122;27;20467;-77
2021/01/23 02:30:18;;;;;;;21.00;18.53;;;1.70;99.90;;;;;;5101575;27;20728;-76
2021/01/23 02:32:48;;;;;;;20.30;18.80;;;1.70;99.90;;;;;;5105287;27;20468;-76
2021/01/23 02:35:17;;;;;;;19.80;18.30;;;1.70;99.90;;;;;;5096551;27;21211;-77
2021/01/23 02:37:44;;;;;;;20.27;18.40;;;1.60;99.90;;;;;;5100731;27;20457;-77
2021/01/23 02:40:13;;;;;;;21.47;19.60;;;1.60;99.90;;;;;;5106617;27;20514;-76
2021/01/23 02:42:40;;;;;;;22.10;19.83;;;1.60;99.90;;;;;;5100381;27;20468;-76
2021/01/23 02:45:07;;;;;;;21.73;19.83;;;1.60;99.90;;;;;;5095223;28;20465;-77
2021/01/23 02:47:34;;;;;;;22.80;20.80;;;1.60;99.90;;;;;;5098710;27;20555;-75
2021/01/23 02:50:03;;;;;;;23.23;21.40;;;1.50;99.90;;;;;;5105561;27;20485;-76
2021/01/23 02:52:52;;;;;;;22.53;20.43;;;1.50;99.90;;;;;;5107909;27;20471;-76
2021/01/23 02:55:21;;;;;;;21.07;19.47;;;1.40;99.90;;;;;;5100537;27;20467;-76
2021/01/23 02:57:49;;;;;;;20.93;19.27;;;1.30;99.90;;;;;;5096807;27;20459;-76
2021/01/23 03:00:17;;;;;;;20.73;19.13;;;1.30;99.90;;;;;;5102485;27;20467;-76
2021/01/23 03:02:50;;;;;;;22.97;20.63;;;1.20;99.90;;;;;;5099523;27;20497;-76
2021/01/23 03:05:18;;;;;;;23.30;20.67;;;1.20;99.90;;;;;;5104145;27;20475;-76
2021/01/23 03:07:45;;;;;;;21.87;20.07;;;1.20;99.90;;;;;;5104027;27;20468;-76
2021/01/23 03:10:13;;;;;;;20.67;18.87;;;1.20;99.90;;;;;;5104581;27;20499;-76
2021/01/23 03:12:39;;;;;;;20.80;19.17;;;1.20;99.90;;;;;;5096434;27;20515;-76
2021/01/23 03:15:06;;;;;;;20.93;19.20;;;1.20;99.90;;;;;;5095775;27;20461;-77
2021/01/23 03:17:34;;;;;;;21.20;19.17;;;1.30;99.90;;;;;;5101607;27;20463;-76
2021/01/23 03:20:01;;;;;;;21.50;20.13;;;1.30;99.90;;;;;;5100825;27;20466;-76
2021/01/23 03:22:28;;;;;;;21.37;19.70;;;1.30;99.90;;;;;;5108454;27;20465;-76
2021/01/23 03:24:55;;;;;;;21.70;20.00;;;1.40;99.90;;;;;;5103406;27;20521;-76
2021/01/23 03:27:21;;;;;;;20.20;18.40;;;1.50;99.90;;;;;;5104039;27;20470;-76
2021/01/23 03:29:48;;;;;;;25.37;19.47;;;1.60;99.90;;;;;;5098852;27;20497;-75
2021/01/23 03:32:14;;;;;;;20.93;19.13;;;1.60;99.90;;;;;;5098787;27;20927;-75
2021/01/23 03:34:40;;;;;;;21.07;19.37;;;1.70;99.90;;;;;;5101045;28;20462;-76
2021/01/23 03:37:07;;;;;;;19.83;18.33;;;1.70;99.90;;;;;;5106187;27;20486;-76
2021/01/23 03:39:35;;;;;;;19.93;18.17;;;1.80;99.90;;;;;;5096389;27;20461;-76
2021/01/23 03:42:02;;;;;;;21.23;19.50;;;2.00;99.90;;;;;;5103946;27;20465;-75
2021/01/23 03:44:28;;;;;;;21.20;19.43;;;2.00;99.90;;;;;;5100636;27;20549;-77
2021/01/23 03:46:55;;;;;;;19.60;18.30;;;2.10;99.90;;;;;;5107725;27;20468;-75
2021/01/23 03:49:21;;;;;;;21.40;19.53;;;2.10;99.90;;;;;;5097547;27;20484;-76
2021/01/23 03:51:47;;;;;;;20.37;18.97;;;2.10;99.90;;;;;;5099728;27;21069;-76
2021/01/23 03:54:13;;;;;;;20.83;19.30;;;2.20;99.90;;;;;;5093282;28;20467;-76
2021/01/23 03:56:41;;;;;;;20.90;18.83;;;2.30;99.90;;;;;;5097473;28;20523;-76
2021/01/23 03:59:08;;;;;;;20.40;18.70;;;2.30;99.90;;;;;;5099193;28;20465;-75
2021/01/23 04:01:34;;;;;;;21.10;19.40;;;2.40;99.90;;;;;;5099577;28;20532;-77
2021/01/23 04:04:00;;;;;;;20.43;18.83;;;2.40;99.90;;;;;;5097838;27;20851;-76
2021/01/23 04:06:27;;;;;;;19.50;18.20;;;2.50;99.90;;;;;;5104007;27;20464;-75
2021/01/23 04:08:53;;;;;;;20.70;19.10;;;2.60;99.90;;;;;;5100695;27;20500;-75
2021/01/23 04:11:19;;;;;;;22.20;19.20;;;2.70;99.90;;;;;;5105220;27;20510;-75
2021/01/23 04:13:46;;;;;;;20.67;18.97;;;2.70;99.90;;;;;;5101230;28;20461;-76
2021/01/23 04:16:14;;;;;;;20.37;18.40;;;2.80;99.90;;;;;;5092576;28;20503;-76
2021/01/23 04:18:40;;;;;;;20.30;18.33;;;2.90;99.90;;;;;;5099764;27;20458;-76
2021/01/23 04:21:06;;;;;;;18.63;17.43;;;3.00;99.90;;;;;;5095534;28;20466;-76
2021/01/23 04:23:33;;;;;;;20.77;18.77;;;3.10;99.90;;;;;;5101188;28;20448;-76
2021/01/23 04:26:00;;;;;;;19.23;17.87;;;3.20;99.90;;;;;;5108293;27;20955;-77
2021/01/23 04:28:26;;;;;;;20.63;18.57;;;3.20;99.90;;;;;;5099578;28;20526;-76
2021/01/23 04:30:53;;;;;;;20.23;18.43;;;3.20;99.90;;;;;;5092049;28;20838;-76
2021/01/23 04:33:19;;;;;;;19.00;17.70;;;3.10;99.90;;;;;;5103729;28;20452;-76
2021/01/23 04:35:46;;;;;;;25.03;17.83;;;3.10;99.90;;;;;;5099036;28;20462;-77
2021/01/23 04:38:12;;;;;;;18.67;17.27;;;3.10;99.90;;;;;;5095916;28;20498;-76
2021/01/23 04:40:38;;;;;;;19.47;17.70;;;3.10;99.90;;;;;;5101126;28;20959;-76
2021/01/23 04:43:05;;;;;;;20.10;18.30;;;3.00;99.90;;;;;;5102382;28;20464;-76
2021/01/23 04:45:32;;;;;;;20.00;18.50;;;3.00;99.90;;;;;;5103335;28;20468;-75
2021/01/23 04:48:00;;;;;;;20.80;18.83;;;3.00;99.90;;;;;;5098061;28;20462;-76
2021/01/23 04:50:27;;;;;;;23.17;18.83;;;3.00;99.90;;;;;;5096096;28;20620;-76
2021/01/23 04:52:53;;;;;;;21.57;19.40;;;3.00;99.90;;;;;;5098204;28;20457;-76
2021/01/23 04:55:19;;;;;;;20.07;18.43;;;3.00;99.90;;;;;;5091923;28;20465;-77
2021/01/23 04:57:46;;;;;;;23.13;19.10;;;3.10;99.90;;;;;;5095430;28;20460;-76
2021/01/23 05:00:13;;;;;;;21.27;19.50;;;3.00;99.90;;;;;;5096069;28;20472;-76
2021/01/23 05:02:40;;;;;;;20.70;18.87;;;3.00;99.90;;;;;;5091115;28;20465;-76
2021/01/23 05:05:08;;;;;;;21.23;19.27;;;2.90;99.90;;;;;;5100069;28;21108;-76
2021/01/23 05:07:36;;;;;;;22.23;19.30;;;2.90;99.90;;;;;;5092661;28;20465;-76
2021/01/23 05:10:23;;;;;;;22.57;20.37;;;2.80;99.90;;;;;;5099821;28;20531;-76
2021/01/23 05:12:51;;;;;;;22.23;19.90;;;2.80;99.90;;;;;;5099339;28;20457;-76
2021/01/23 05:15:21;;;;;;;22.10;20.03;;;2.80;99.90;;;;;;5094961;28;20493;-75
2021/01/23 05:17:53;;;;;;;22.13;20.20;;;2.80;99.90;;;;;;5102945;28;20461;-76
2021/01/23 05:20:35;;;;;;;21.20;19.37;;;2.80;99.90;;;;;;5099219;28;20489;-76
2021/01/23 05:23:02;;;;;;;22.50;20.70;;;2.80;99.90;;;;;;5101788;28;20465;-76
2021/01/23 05:25:30;;;;;;;24.90;22.63;;;2.70;99.90;;;;;;5098524;28;20801;-75
2021/01/23 05:27:57;;;;;;;22.27;20.17;;;2.60;99.90;;;;;;5100364;28;20477;-75
2021/01/23 05:30:24;;;;;;;24.70;20.60;;;2.50;99.90;;;;;;5102358;27;20499;-76
2021/01/23 05:33:08;;;;;;;21.97;20.17;;;2.40;99.90;;;;;;5103514;28;20464;-76
2021/01/23 05:35:36;;;;;;;21.47;19.57;;;2.40;99.90;;;;;;5097185;28;21028;-75
2021/01/23 05:38:24;;;;;;;20.67;18.77;;;2.40;99.90;;;;;;5094751;28;20454;-75
2021/01/23 05:40:53;;;;;;;22.37;20.40;;;2.40;99.90;;;;;;5100952;28;20460;-76
2021/01/23 05:43:33;;;;;;;22.40;20.40;;;2.40;99.90;;;;;;5094980;28;20907;-75
2021/01/23 05:46:00;;;;;;;22.03;20.23;;;2.40;99.90;;;;;;5082744;28;20461;-75
2021/01/23 05:48:26;;;;;;;22.93;21.13;;;2.40;99.90;;;;;;5104352;28;20482;-76
2021/01/23 05:50:54;;;;;;;23.57;21.37;;;2.40;99.90;;;;;;5101422;28;20485;-75
2021/01/23 05:53:21;;;;;;;21.80;20.03;;;2.40;99.90;;;;;;5097522;28;20567;-75
2021/01/23 05:55:48;;;;;;;22.33;20.57;;;2.30;99.90;;;;;;5099299;28;20466;-76
2021/01/23 05:58:14;;;;;;;22.23;20.43;;;2.30;99.90;;;;;;5102587;28;20883;-75
2021/01/23 06:00:41;;;;;;;21.93;20.03;;;2.30;99.90;;;;;;5102951;28;20505;-76
2021/01/23 06:03:07;;;;;;;21.80;20.10;;;2.30;99.90;;;;;;5100259;28;20500;-76
2021/01/23 06:05:34;;;;;;;21.53;19.93;;;2.20;99.90;;;;;;5102518;28;20467;-76
2021/01/23 06:08:01;;;;;;;22.33;20.10;;;2.20;99.90;;;;;;5099027;28;20468;-76
2021/01/23 06:10:43;;;;;;;24.57;21.60;;;2.20;99.90;;;;;;5100298;28;20493;-76
2021/01/23 06:13:36;;;;;;;21.60;20.00;;;2.20;99.90;;;;;;5101532;28;20456;-75
2021/01/23 06:16:03;;;;;;;24.77;22.27;;;2.40;99.90;;;;;;5096307;28;20462;-75
2021/01/23 06:18:31;;;;;;;23.30;21.10;;;2.50;99.90;;;;;;5102794;28;20461;-75
2021/01/23 06:20:59;;;;;;;24.23;22.17;;;2.60;99.90;;;;;;5104791;28;20525;-75
2021/01/23 06:23:49;;;;;;;28.40;21.57;;;2.70;99.90;;;;;;5098430;28;20507;-76
2021/01/23 06:26:16;;;;;;;23.60;21.10;;;2.80;99.90;;;;;;5098438;28;20477;-76
2021/01/23 06:28:50;;;;;;;24.57;22.23;;;2.90;99.90;;;;;;5097552;27;20925;-75
2021/01/23 06:31:36;;;;;;;24.27;22.07;;;3.00;99.90;;;;;;5096775;28;20475;-76
2021/01/23 06:34:25;;;;;;;24.67;22.40;;;3.10;99.90;;;;;;5103523;28;20471;-76
2021/01/23 06:37:21;;;;;;;25.80;23.40;;;3.10;99.90;;;;;;5100823;28;20469;-76
2021/01/23 06:40:11;;;;;;;27.33;24.50;;;3.30;99.90;;;;;;5098194;28;20543;-76
2021/01/23 06:42:39;;;;;;;26.70;24.00;;;3.40;99.90;;;;;;5100302;28;20453;-76
2021/01/23 06:45:23;;;;;;;25.47;23.37;;;3.50;99.90;;;;;;5094807;28;20461;-76
2021/01/23 06:47:51;;;;;;;25.20;23.00;;;3.60;99.90;;;;;;5096427;28;20532;-76
2021/01/23 06:50:29;;;;;;;24.93;22.50;;;3.60;99.90;;;;;;5098156;28;20502;-75
2021/01/23 06:52:55;;;;;;;24.97;22.50;;;3.70;99.90;;;;;;5101976;28;20468;-76
2021/01/23 06:55:49;;;;;;;23.53;21.53;;;3.70;99.90;;;;;;5100633;28;20461;-76
2021/01/23 06:58:24;;;;;;;25.37;23.07;;;3.70;99.90;;;;;;5093861;28;21958;-75
2021/01/23 07:00:52;;;;;;;25.70;23.07;;;3.60;99.90;;;;;;5100282;28;20461;-76
2021/01/23 07:03:19;;;;;;;24.50;22.50;;;3.50;99.90;;;;;;5100706;28;20849;-76
2021/01/23 07:05:51;;;;;;;24.73;22.50;;;3.40;99.90;;;;;;5101714;28;20472;-76
2021/01/23 07:08:25;;;;;;;23.67;21.30;;;3.20;99.90;;;;;;5095798;28;20488;-76
2021/01/23 07:11:08;;;;;;;24.20;21.93;;;3.00;99.90;;;;;;5098182;28;20830;-76
2021/01/23 07:13:37;;;;;;;22.93;20.87;;;2.80;99.90;;;;;;5101973;28;20842;-76
2021/01/23 07:16:04;;;;;;;23.27;21.37;;;2.60;99.90;;;;;;5098796;28;20823;-76
2021/01/23 07:18:30;;;;;;;24.70;22.70;;;2.40;99.90;;;;;;5093116;27;20570;-76
2021/01/23 07:20:57;;;;;;;25.27;22.77;;;2.30;99.90;;;;;;5090727;27;20545;-76
2021/01/23 07:23:23;;;;;;;24.83;22.17;;;2.20;99.90;;;;;;5103684;27;20466;-76
2021/01/23 07:25:51;;;;;;;28.20;22.57;;;2.10;99.90;;;;;;5111903;27;20464;-76
2021/01/23 07:28:18;;;;;;;23.57;21.57;;;2.10;99.90;;;;;;5103653;27;20463;-75
2021/01/23 07:30:46;;;;;;;25.43;22.90;;;2.00;99.90;;;;;;5095243;27;20493;-76
2021/01/23 07:33:12;;;;;;;25.73;23.50;;;1.90;99.90;;;;;;5102540;27;20464;-76
2021/01/23 07:35:39;;;;;;;24.73;22.17;;;1.90;99.90;;;;;;5096265;28;20567;-76
2021/01/23 07:38:08;;;;;;;25.27;22.77;;;1.90;99.90;;;;;;5106297;27;20526;-76
2021/01/23 07:40:36;;;;;;;24.80;22.60;;;1.90;99.90;;;;;;5109406;27;20471;-75
2021/01/23 07:43:05;;;;;;;23.63;21.30;;;1.80;99.90;;;;;;5105460;27;20463;-76
2021/01/23 07:45:32;;;;;;;25.87;23.47;;;1.70;99.90;;;;;;5096984;28;20733;-76
2021/01/23 07:48:01;;;;;;;25.43;23.10;;;1.80;99.90;;;;;;5104563;27;20563;-76
2021/01/23 07:50:37;;;;;;;25.00;22.80;;;1.70;99.90;;;;;;5102106;27;20488;-76
2021/01/23 07:53:14;;;;;;;23.40;21.50;;;1.70;99.90;;;;;;5103388;27;20864;-76
2021/01/23 07:55:40;;;;;;;24.57;22.07;;;1.60;99.90;;;;;;5096622;27;20539;-76
2021/01/23 07:58:07;;;;;;;25.50;23.30;;;1.60;99.90;;;;;;5092994;28;20820;-75
2021/01/23 08:00:33;;;;;;;24.37;22.37;;;1.50;99.90;;;;;;5091349;27;20472;-76
2021/01/23 08:03:00;;;;;;;24.47;22.40;;;1.60;99.90;;;;;;5090028;28;20843;-76
2021/01/23 08:05:44;;;;;;;29.13;23.00;;;1.80;99.90;;;;;;5098526;28;21058;-76
2021/01/23 08:08:12;;;;;;;24.20;22.00;;;1.90;99.90;;;;;;5097105;27;20468;-75
2021/01/23 08:10:39;;;;;;;23.10;21.30;;;2.10;99.90;;;;;;5097916;27;20469;-75
2021/01/23 08:13:08;;;;;;;23.60;21.47;;;2.30;99.90;;;;;;5100984;28;20453;-76
2021/01/23 08:15:35;;;;;;;24.87;22.63;;;2.40;99.90;;;;;;5103243;28;20511;-76
2021/01/23 08:18:15;;;;;;;22.60;20.37;;;2.60;99.90;;;;;;5095650;27;20466;-76
2021/01/23 08:20:42;;;;;;;23.97;21.77;;;2.70;99.90;;;;;;5097165;27;20873;-75
2021/01/23 08:23:10;;;;;;;23.90;21.70;;;2.80;99.90;;;;;;5092143;28;20462;-76
2021/01/23 08:25:38;;;;;;;24.20;21.90;;;2.90;99.90;;;;;;5090655;28;20485;-76
2021/01/23 08:28:06;;;;;;;25.93;21.87;;;2.90;99.90;;;;;;5095599;28;20461;-76
2021/01/23 08:30:33;;;;;;;24.37;22.13;;;3.00;99.90;;;;;;5100011;28;20570;-76
2021/01/23 08:33:03;;;;;;;23.57;21.57;;;3.10;99.90;;;;;;5106814;28;20889;-76
2021/01/23 08:35:31;;;;;;;23.27;20.97;;;3.20;99.90;;;;;;5098578;28;20485;-76
2021/01/23 08:37:58;;;;;;;24.23;22.20;;;3.30;99.90;;;;;;5092091;28;20472;-76
2021/01/23 08:40:25;;;;;;;23.27;21.00;;;3.40;99.90;;;;;;5102975;28;20463;-76
2021/01/23 08:42:52;;;;;;;22.43;20.53;;;3.60;99.90;;;;;;5104474;27;20472;-76
2021/01/23 08:45:20;;;;;;;21.77;19.90;;;3.70;99.90;;;;;;5100565;27;20460;-76
2021/01/23 08:47:47;;;;;;;22.90;20.87;;;3.70;99.90;;;;;;5100808;27;20458;-76
2021/01/23 08:50:15;;;;;;;23.97;21.60;;;3.90;99.90;;;;;;5098960;27;20500;-76
2021/01/23 08:52:41;;;;;;;21.13;19.43;;;4.10;99.90;;;;;;5104786;27;20474;-76
2021/01/23 08:55:09;;;;;;;21.13;19.40;;;4.20;99.90;;;;;;5098474;27;20466;-76
2021/01/23 08:57:35;;;;;;;22.40;20.40;;;4.30;99.90;;;;;;5104439;27;20966;-76
2021/01/23 09:00:03;;;;;;;23.87;21.77;;;4.40;99.90;;;;;;5099617;27;20465;-76
2021/01/23 09:02:30;;;;;;;22.03;20.30;;;4.40;99.90;;;;;;5103741;27;20465;-76
2021/01/23 09:04:56;;;;;;;22.13;19.93;;;4.50;99.90;;;;;;5106010;27;20470;-76
2021/01/23 09:07:23;;;;;;;21.43;19.57;;;4.50;99.90;;;;;;5107801;27;20461;-76
2021/01/23 09:09:50;;;;;;;22.27;20.27;;;4.60;99.90;;;;;;5099963;27;20927;-76
2021/01/23 09:12:16;;;;;;;21.70;19.63;;;4.70;99.90;;;;;;5096584;28;20490;-77
2021/01/23 09:14:43;;;;;;;21.03;19.20;;;4.80;99.90;;;;;;5099391;27;20461;-76
2021/01/23 09:17:09;;;;;;;20.70;19.10;;;4.80;99.90;;;;;;5096171;28;20465;-76
2021/01/23 09:19:35;;;;;;;22.00;20.00;;;4.90;99.90;;;;;;5099326;27;20458;-76
2021/01/23 09:22:02;;;;;;;22.40;20.30;;;4.90;99.90;;;;;;5097211;27;20546;-76
2021/01/23 09:24:29;;;;;;;27.53;21.90;;;5.00;99.90;;;;;;5109607;27;20867;-76
2021/01/23 09:26:56;;;;;;;23.27;20.83;;;5.10;99.90;;;;;;5096348;27;20548;-76
2021/01/23 09:29:23;;;;;;;21.13;19.40;;;5.20;99.90;;;;;;5097375;27;20485;-76
2021/01/23 09:31:49;;;;;;;21.40;19.53;;;5.30;99.90;;;;;;5113082;27;20459;-76
2021/01/23 09:34:15;;;;;;;20.40;18.63;;;5.40;99.90;;;;;;5098648;27;20473;-76
2021/01/23 09:36:42;;;;;;;21.83;19.80;;;5.40;99.90;;;;;;5094087;27;20474;-76
2021/01/23 09:39:09;;;;;;;20.20;18.20;;;5.50;99.90;;;;;;5113991;27;20466;-76
2021/01/23 09:41:36;;;;;;;20.07;18.20;;;5.60;99.90;;;;;;5101192;27;20517;-76
2021/01/23 09:44:03;;;;;;;19.50;17.83;;;5.60;99.90;;;;;;5093655;27;20828;-76
2021/01/23 09:46:29;;;;;;;21.17;19.30;;;5.80;99.90;;;;;;5096525;27;20466;-77
2021/01/23 09:48:55;;;;;;;21.33;19.47;;;5.80;99.90;;;;;;5107217;27;20492;-76
2021/01/23 09:51:21;;;;;;;19.90;17.97;;;6.00;99.90;;;;;;5102048;27;20492;-76
2021/01/23 09:53:48;;;;;;;20.53;18.60;;;6.10;99.90;;;;;;5108631;27;20868;-76
2021/01/23 09:56:15;;;;;;;20.03;18.57;;;6.30;99.90;;;;;;5103259;27;20479;-76
2021/01/23 09:58:42;;;;;;;19.90;18.40;;;6.30;99.90;;;;;;5093018;27;20472;-76
2021/01/23 10:01:08;;;;;;;20.00;18.60;;;6.50;99.90;;;;;;5100077;27;20462;-76
2021/01/23 10:03:35;;;;;;;19.37;17.70;;;6.50;99.90;;;;;;5093190;27;20469;-76
2021/01/23 10:06:01;;;;;;;20.03;18.20;;;6.70;99.90;;;;;;5095005;28;20458;-75
2021/01/23 10:08:28;;;;;;;19.17;17.77;;;6.80;99.90;;;;;;5072127;28;21060;-76
2021/01/23 10:10:54;;;;;;;26.43;18.27;;;6.90;99.90;;;;;;5110157;27;21028;-76
2021/01/23 10:13:20;;;;;;;19.17;17.83;;;7.00;99.90;;;;;;5097825;28;20982;-76
2021/01/23 10:15:48;;;;;;;19.17;17.90;;;7.10;99.90;;;;;;5103268;28;20458;-76
2021/01/23 10:18:15;;;;;;;19.37;18.00;;;7.20;99.90;;;;;;5099629;28;20466;-77
2021/01/23 10:20:41;;;;;;;19.50;18.00;;;7.30;99.90;;;;;;5102880;28;20468;-76
2021/01/23 10:23:08;;;;;;;19.87;18.23;;;7.40;99.90;;;;;;5098521;28;20469;-76
2021/01/23 10:25:34;;;;;;;17.77;16.57;;;7.50;99.90;;;;;;5098239;28;20553;-76
2021/01/23 10:28:02;;;;;;;18.40;17.20;;;7.70;99.90;;;;;;5098540;28;20500;-76
2021/01/23 10:30:29;;;;;;;19.10;17.70;;;7.80;99.90;;;;;;5104007;27;20490;-77
2021/01/23 10:32:56;;;;;;;16.80;15.53;;;8.00;99.90;;;;;;5104243;28;20470;-77
2021/01/23 10:35:23;;;;;;;18.40;17.20;;;8.00;99.90;;;;;;5097070;28;20505;-77
2021/01/23 10:37:50;;;;;;;18.10;16.90;;;8.10;99.90;;;;;;5098134;28;20967;-77
2021/01/23 10:40:17;;;;;;;16.80;15.73;;;8.20;99.90;;;;;;5099581;28;20469;-77
2021/01/23 10:42:43;;;;;;;18.37;15.77;;;8.20;99.90;;;;;;5097311;28;20511;-77
2021/01/23 10:45:10;;;;;;;18.10;16.70;;;8.10;99.90;;;;;;5099103;28;20466;-77
2021/01/23 10:47:37;;;;;;;17.57;16.47;;;8.10;99.90;;;;;;5102938;28;20468;-77
2021/01/23 10:50:06;;;;;;;20.60;19.00;;;8.10;99.90;;;;;;5098235;28;20514;-77
2021/01/23 10:52:33;;;;;;;17.83;16.33;;;8.00;99.90;;;;;;5099553;28;20461;-78
2021/01/23 10:55:00;;;;;;;16.57;15.37;;;8.00;99.90;;;;;;5102948;28;20473;-79
2021/01/23 10:57:27;;;;;;;16.30;15.10;;;8.20;99.90;;;;;;5101012;28;20551;-78
2021/01/23 10:59:53;;;;;;;18.47;16.97;;;8.20;99.90;;;;;;5094097;28;20469;-78
2021/01/23 11:02:19;;;;;;;16.17;15.33;;;8.30;99.90;;;;;;5095187;28;20468;-79
2021/01/23 11:04:45;;;;;;;16.60;15.50;;;8.50;99.90;;;;;;5099850;28;21018;-79
2021/01/23 11:07:13;;;;;;;15.50;14.50;;;8.60;99.90;;;;;;5100683;28;20545;-79
2021/01/23 11:09:39;;;;;;;15.97;15.17;;;8.70;99.90;;;;;;5101249;28;21026;-80
2021/01/23 11:12:06;;;;;;;16.37;15.17;;;9.00;99.90;;;;;;5098189;28;20457;-79
2021/01/23 11:14:34;;;;;;;15.83;14.93;;;9.30;99.90;;;;;;5107583;27;20464;-79
2021/01/23 11:17:00;;;;;;;15.93;14.70;;;9.50;99.90;;;;;;5096125;27;20857;-79
2021/01/23 11:19:27;;;;;;;15.87;14.80;;;9.50;99.90;;;;;;5098756;27;20522;-79
2021/01/23 11:21:54;;;;;;;16.37;15.00;;;9.80;99.90;;;;;;5100313;27;20492;-78
2021/01/23 11:24:21;;;;;;;14.80;14.00;;;9.90;99.90;;;;;;5105164;27;20472;-78
2021/01/23 11:26:47;;;;;;;16.17;15.07;;;9.70;99.90;;;;;;5103116;27;20461;-79
2021/01/23 11:29:14;;;;;;;16.00;14.90;;;9.40;99.90;;;;;;5098781;28;20508;-78
2021/01/23 11:31:41;;;;;;;17.40;16.23;;;9.20;99.90;;;;;;5105216;27;20496;-79
2021/01/23 11:34:08;;;;;;;16.27;15.27;;;9.40;99.90;;;;;;5097403;27;20462;-79
2021/01/23 11:36:34;;;;;;;15.97;15.10;;;9.60;99.90;;;;;;5099665;27;20564;-76
2021/01/23 11:39:01;;;;;;;16.87;15.67;;;9.90;99.90;;;;;;5102881;27;20876;-79
2021/01/23 11:41:28;;;;;;;14.77;13.60;;;10.30;99.90;;;;;;5098791;27;20458;-78
2021/01/23 11:43:55;;;;;;;15.57;14.53;;;10.40;99.90;;;;;;5107236;27;20586;-78
2021/01/23 11:46:21;;;;;;;15.90;14.70;;;10.40;99.90;;;;;;5098151;27;20462;-76
2021/01/23 11:48:48;;;;;;;13.93;13.00;;;10.60;99.90;;;;;;5096155;28;20848;-76
2021/01/23 11:51:14;;;;;;;14.93;14.00;;;10.80;99.90;;;;;;5101026;27;20476;-76
2021/01/23 11:53:40;;;;;;;15.20;14.27;;;11.20;99.90;;;;;;5098578;27;20458;-76
2021/01/23 11:56:07;;;;;;;14.60;13.77;;;11.10;99.90;;;;;;5090905;27;20470;-77
2021/01/23 11:58:34;;;;;;;15.20;14.20;;;10.60;99.90;;;;;;5110555;27;20458;-77
2021/01/23 12:01:01;;;;;;;14.80;13.80;;;10.10;99.90;;;;;;5104999;27;20475;-77
2021/01/23 12:03:27;;;;;;;15.63;14.33;;;10.20;99.90;;;;;;5100287;27;20461;-77
2021/01/23 12:05:54;;;;;;;15.60;14.70;;;10.00;99.90;;;;;;5100045;27;20472;-77
2021/01/23 12:08:20;;;;;;;14.80;13.77;;;9.70;99.90;;;;;;5101737;27;20472;-77
2021/01/23 12:10:47;;;;;;;15.37;14.00;;;9.60;99.90;;;;;;5099418;27;20679;-77
2021/01/23 12:13:13;;;;;;;15.03;14.23;;;9.50;99.90;;;;;;5104329;27;20464;-77
2021/01/23 12:15:40;;;;;;;14.47;13.57;;;9.30;99.90;;;;;;5095925;28;21020;-77
2021/01/23 12:18:07;;;;;;;14.77;13.77;;;9.30;99.90;;;;;;5101415;27;20468;-77
2021/01/23 12:20:33;;;;;;;14.77;13.87;;;9.20;99.90;;;;;;5094348;28;20772;-77
2021/01/23 12:23:00;;;;;;;15.30;14.20;;;9.10;99.90;;;;;;5093976;28;20474;-77
2021/01/23 12:25:27;;;;;;;17.77;16.10;;;8.80;99.90;;;;;;5090685;28;20464;-77
2021/01/23 12:27:53;;;;;;;19.83;17.90;;;8.70;99.90;;;;;;5097012;28;20494;-77
2021/01/23 12:30:21;;;;;;;17.43;16.13;;;8.80;99.90;;;;;;5092371;28;20497;-77
2021/01/23 12:32:48;;;;;;;20.83;18.77;;;8.90;99.90;;;;;;5102268;28;20496;-77
2021/01/23 12:35:16;;;;;;;20.60;18.50;;;9.00;99.90;;;;;;5096197;28;20479;-78
2021/01/23 12:37:43;;;;;;;16.33;15.13;;;8.90;99.90;;;;;;5099596;27;20966;-77
2021/01/23 12:40:10;;;;;;;15.23;13.87;;;9.00;99.90;;;;;;5100641;28;20472;-78
2021/01/23 12:42:36;;;;;;;14.93;13.83;;;9.10;99.90;;;;;;5089657;28;20558;-78